Time;durP1;ratioP1;P1;durP2;ratioP2;P2;SDS_P1;SDS_P2;PMS_P1;PMS_P2;Temp;Humidity;BMP_temperature;BMP_pressure;BME280_temperature;BME280_humidity;BME280_pressure;Samples;Min_cycle;Max_cycle;Signal;HPM_P1;HPM_P2
2022/04/23 00:00:39;;;;;;;;;;;332.80;2329.60;;;;;;5117502;28;20260;-71
2022/04/23 00:03:05;;;;;;;;;;;332.80;2329.60;;;;;;5117435;28;19904;-72
2022/04/23 00:05:30;;;;;;;;;;;332.80;2329.60;;;;;;5117501;28;19908;-72
2022/04/23 00:07:57;;;;;;;;;;;332.80;2329.60;;;;;;5117392;28;20359;-72
2022/04/23 00:10:23;;;;;;;;;;;332.80;2329.60;;;;;;5117289;28;20370;-71
2022/04/23 00:12:50;;;;;;;;;;;332.80;2329.60;;;;;;5117233;28;19904;-78
2022/04/23 00:15:15;;;;;;;;;;;332.80;2329.60;;;;;;5117163;28;19911;-72
2022/04/23 00:17:43;;;;;;;;;;;332.80;2329.60;;;;;;5117151;28;20367;-77
2022/04/23 00:20:09;;;;;;;;;;;332.80;2329.60;;;;;;5117176;28;20240;-76
2022/04/23 00:22:35;;;;;;;;;;;308.10;2304.00;;;;;;5117050;28;19964;-71
2022/04/23 00:25:01;;;;;;;;;;;308.10;2304.00;;;;;;5117347;28;19908;-72
2022/04/23 00:27:26;;;;;;;;;;;308.10;2304.00;;;;;;5117244;28;19956;-72
2022/04/23 00:29:52;;;;;;;;;;;308.10;2304.00;;;;;;5116924;28;19937;-72
2022/04/23 00:32:18;;;;;;;;;;;308.10;2304.00;;;;;;5116754;28;19911;-73
2022/04/23 00:34:43;;;;;;;;;;;308.00;2304.00;;;;;;5115847;28;19911;-72
2022/04/23 00:37:10;;;;;;;;;;;308.00;2304.00;;;;;;5116772;28;19904;-71
2022/04/23 00:39:35;;;;;;;;;;;308.10;2304.00;;;;;;5116784;28;19957;-72
2022/04/23 00:42:08;;;;;;;;;;;308.00;2304.00;;;;;;5116737;28;19908;-75
2022/04/23 00:44:34;;;;;;;;;;;308.00;2304.00;;;;;;5117015;28;19911;-72
2022/04/23 00:47:00;;;;;;;;;;;308.00;2304.00;;;;;;5116950;28;20002;-72
2022/04/23 00:49:26;;;;;;;;;;;308.00;2304.00;;;;;;5116575;28;20391;-73
2022/04/23 00:51:52;;;;;;;;;;;308.00;2304.00;;;;;;5116530;28;19904;-71
2022/04/23 00:54:18;;;;;;;;;;;308.00;2304.00;;;;;;5116363;28;19972;-71
2022/04/23 00:56:44;;;;;;;;;;;308.00;2304.00;;;;;;5116452;28;20004;-72
2022/04/23 00:59:13;;;;;;;;;;;308.00;2304.00;;;;;;5098079;28;19909;-70
2022/04/23 01:01:43;;;;;;;;;;;308.00;2304.00;;;;;;5116342;28;19904;-71
2022/04/23 01:04:09;;;;;;;;;;;308.00;2304.00;;;;;;5081603;28;19904;-71
2022/04/23 01:06:35;;;;;;;;;;;308.00;2304.00;;;;;;5116173;28;19911;-71
2022/04/23 01:09:02;;;;;;;;;;;308.00;2304.00;;;;;;5116448;28;19903;-71
2022/04/23 01:11:28;;;;;;;;;;;308.00;2304.00;;;;;;5116447;28;19910;-71
2022/04/23 01:13:54;;;;;;;;;;;308.00;2304.00;;;;;;5116093;28;19903;-71
2022/04/23 01:16:19;;;;;;;;;;;307.90;2304.00;;;;;;5116007;28;19911;-71
2022/04/23 01:18:45;;;;;;;;;;;307.90;2304.00;;;;;;5115936;28;19938;-72
2022/04/23 01:21:13;;;;;;;;;;;307.90;2304.00;;;;;;5115950;28;20484;-72
2022/04/23 01:23:40;;;;;;;;;;;307.90;2304.00;;;;;;5115883;28;19904;-70
2022/04/23 01:26:08;;;;;;;;;;;307.80;2304.00;;;;;;5115852;28;20417;-71
2022/04/23 01:28:34;;;;;;;;;;;307.80;2304.00;;;;;;5116094;28;20411;-71
2022/04/23 01:31:00;;;;;;;;;;;307.80;2304.00;;;;;;5116321;28;20352;-73
2022/04/23 01:33:25;;;;;;;;;;;307.80;2304.00;;;;;;5093855;28;19969;-71
2022/04/23 01:35:51;;;;;;;;;;;307.80;2304.00;;;;;;5095177;28;20360;-71
2022/04/23 01:38:17;;;;;;;;;;;307.80;2304.00;;;;;;5093981;28;20424;-71
2022/04/23 01:40:43;;;;;;;;;;;307.70;2304.00;;;;;;5095202;28;19904;-77
2022/04/23 01:43:09;;;;;;;;;;;307.70;2304.00;;;;;;5095121;28;20360;-75
2022/04/23 01:45:35;;;;;;;;;;;307.70;2304.00;;;;;;5095003;28;19904;-76
2022/04/23 01:48:01;;;;;;;;;;;307.70;2304.00;;;;;;5095379;28;19914;-72
2022/04/23 01:50:27;;;;;;;;;;;307.70;2304.00;;;;;;5095061;28;19904;-77
2022/04/23 01:52:52;;;;;;;;;;;307.70;2304.00;;;;;;5094998;28;19985;-77
2022/04/23 01:55:18;;;;;;;;;;;307.60;2304.00;;;;;;5094820;28;19912;-71
2022/04/23 01:57:43;;;;;;;;;;;307.60;2304.00;;;;;;5094840;28;19904;-72
2022/04/23 02:00:11;;;;;;;;;;;307.60;2304.00;;;;;;5094747;28;19904;-70
2022/04/23 02:02:37;;;;;;;;;;;307.50;2304.00;;;;;;5094797;28;19904;-71
2022/04/23 02:05:06;;;;;;;;;;;307.40;2304.00;;;;;;5094781;28;20438;-71
2022/04/23 02:07:36;;;;;;;;;;;307.50;2304.00;;;;;;5093339;28;19908;-70
2022/04/23 02:10:02;;;;;;;;;;;307.50;2304.00;;;;;;5094655;28;19908;-72
2022/04/23 02:12:28;;;;;;;;;;;307.50;2304.00;;;;;;5094937;28;19904;-71
2022/04/23 02:14:54;;;;;;;;;;;307.50;2304.00;;;;;;5093248;28;19912;-71
2022/04/23 02:17:19;;;;;;;;;;;307.50;2304.00;;;;;;5094616;28;19944;-76
2022/04/23 02:19:45;;;;;;;;;;;307.40;2304.00;;;;;;5094475;28;19904;-74
2022/04/23 02:22:11;;;;;;;;;;;307.50;2304.00;;;;;;5094753;28;19911;-72
2022/04/23 02:24:37;;;;;;;;;;;307.50;2304.00;;;;;;5110063;28;20348;-71
2022/04/23 02:27:02;;;;;;;;;;;307.50;2304.00;;;;;;5094373;28;19911;-70
2022/04/23 02:29:28;;;;;;;;;;;307.50;2304.00;;;;;;5094334;28;19911;-71
2022/04/23 02:31:53;;;;;;;;;;;307.50;2304.00;;;;;;5094525;28;19904;-71
2022/04/23 02:34:21;;;;;;;;;;;307.50;2304.00;;;;;;5111415;28;19915;-71
2022/04/23 02:36:47;;;;;;;;;;;307.50;2304.00;;;;;;5114537;28;19998;-70
2022/04/23 02:39:13;;;;;;;;;;;307.50;2304.00;;;;;;5114867;28;19996;-70
2022/04/23 02:41:39;;;;;;;;;;;307.50;2304.00;;;;;;5096238;28;19904;-81
2022/04/23 02:44:05;;;;;;;;;;;307.60;2304.00;;;;;;5114637;28;19947;-71
2022/04/23 02:46:30;;;;;;;;;;;307.50;2304.00;;;;;;5114543;28;19994;-79
2022/04/23 02:48:57;;;;;;;;;;;307.50;2304.00;;;;;;5114654;28;19910;-76
2022/04/23 02:51:23;;;;;;;;;;;307.50;2304.00;;;;;;5114404;28;19964;-71
2022/04/23 02:53:48;;;;;;;;;;;307.50;2304.00;;;;;;5114378;28;19903;-72
2022/04/23 02:56:16;;;;;;;;;;;307.50;2304.00;;;;;;5114005;28;19915;-71
2022/04/23 02:58:43;;;;;;;;;;;307.50;2304.00;;;;;;5113772;28;20007;-72
2022/04/23 03:01:10;;;;;;;;;;;307.50;2304.00;;;;;;5114402;28;20352;-72
2022/04/23 03:03:40;;;;;;;;;;;307.50;2304.00;;;;;;5096117;28;20002;-78
2022/04/23 03:06:07;;;;;;;;;;;307.50;2304.00;;;;;;5114558;28;19911;-78
2022/04/23 03:08:35;;;;;;;;;;;307.50;2304.00;;;;;;5114486;28;20283;-70
2022/04/23 03:11:00;;;;;;;;;;;307.50;2304.00;;;;;;5114505;28;19903;-76
2022/04/23 03:13:26;;;;;;;;;;;307.50;2304.00;;;;;;5095972;28;19904;-70
2022/04/23 03:15:52;;;;;;;;;;;307.50;2304.00;;;;;;5114536;28;20020;-70
2022/04/23 03:18:18;;;;;;;;;;;307.50;2304.00;;;;;;5114128;28;20279;-77
2022/04/23 03:20:44;;;;;;;;;;;307.50;2304.00;;;;;;5114125;28;19910;-77
2022/04/23 03:23:11;;;;;;;;;;;307.50;2304.00;;;;;;5114188;28;20330;-76
2022/04/23 03:25:37;;;;;;;;;;;307.50;2304.00;;;;;;5114110;28;20336;-71
2022/04/23 03:28:03;;;;;;;;;;;307.50;2304.00;;;;;;5114470;28;19911;-71
2022/04/23 03:30:29;;;;;;;;;;;307.50;2304.00;;;;;;5114040;28;19904;-70
2022/04/23 03:32:54;;;;;;;;;;;307.50;2304.00;;;;;;5113734;28;20322;-71
2022/04/23 03:35:20;;;;;;;;;;;307.60;2304.00;;;;;;5113900;28;19911;-77
2022/04/23 03:37:47;;;;;;;;;;;307.60;2304.00;;;;;;5114258;28;19904;-70
2022/04/23 03:40:13;;;;;;;;;;;307.60;2304.00;;;;;;5095671;28;20271;-72
2022/04/23 03:42:39;;;;;;;;;;;307.60;2304.00;;;;;;5113936;28;19904;-71
2022/04/23 03:45:05;;;;;;;;;;;307.70;2304.00;;;;;;5113890;28;19998;-79
2022/04/23 03:47:31;;;;;;;;;;;307.70;2304.00;;;;;;5113835;28;19904;-78
2022/04/23 03:50:06;;;;;;;;;;;307.70;2304.00;;;;;;5114184;28;20268;-79
2022/04/23 03:52:32;;;;;;;;;;;307.70;2304.00;;;;;;5113793;28;19907;-72
2022/04/23 03:54:58;;;;;;;;;;;307.70;2304.00;;;;;;5113722;28;19908;-71
2022/04/23 03:57:23;;;;;;;;;;;307.70;2304.00;;;;;;5113960;28;19904;-71
2022/04/23 03:59:49;;;;;;;;;;;307.70;2304.00;;;;;;5113792;28;19903;-70
2022/04/23 04:02:14;;;;;;;;;;;307.70;2304.00;;;;;;5113792;28;20355;-76
2022/04/23 04:04:42;;;;;;;;;;;307.70;2304.00;;;;;;5113720;28;20002;-70
2022/04/23 04:07:08;;;;;;;;;;;307.70;2304.00;;;;;;5113678;28;19918;-77
2022/04/23 04:09:34;;;;;;;;;;;307.70;2304.00;;;;;;5113826;28;19903;-71
2022/04/23 04:12:03;;;;;;;;;;;307.70;2304.00;;;;;;5099095;28;20332;-76
2022/04/23 04:14:32;;;;;;;;;;;307.70;2304.00;;;;;;5117233;28;19911;-70
2022/04/23 04:16:58;;;;;;;;;;;307.70;2304.00;;;;;;5117266;28;19903;-75
2022/04/23 04:19:25;;;;;;;;;;;307.70;2304.00;;;;;;5098992;28;19903;-76
2022/04/23 04:21:51;;;;;;;;;;;307.70;2304.00;;;;;;5117448;28;19908;-78
2022/04/23 04:24:16;;;;;;;;;;;307.70;2304.00;;;;;;5098846;28;20416;-70
2022/04/23 04:26:47;;;;;;;;;;;307.70;2304.00;;;;;;5117086;28;19910;-70
2022/04/23 04:29:13;;;;;;;;;;;307.70;2304.00;;;;;;5117001;28;19904;-71
2022/04/23 04:31:51;;;;;;;;;;;307.80;2304.00;;;;;;5116915;28;19903;-76
2022/04/23 04:34:20;;;;;;;;;;;307.90;2304.00;;;;;;5116640;28;19916;-70
2022/04/23 04:36:46;;;;;;;;;;;307.90;2304.00;;;;;;5116765;28;19912;-71
2022/04/23 04:39:12;;;;;;;;;;;307.90;2304.00;;;;;;5098510;28;19904;-71
2022/04/23 04:41:38;;;;;;;;;;;307.90;2304.00;;;;;;5116771;28;19904;-79
2022/04/23 04:44:07;;;;;;;;;;;307.90;2304.00;;;;;;5116684;28;19908;-71
2022/04/23 04:46:33;;;;;;;;;;;307.90;2304.00;;;;;;5116659;28;19903;-78
2022/04/23 04:49:00;;;;;;;;;;;307.90;2304.00;;;;;;5116626;28;20382;-71
2022/04/23 04:51:26;;;;;;;;;;;307.90;2304.00;;;;;;5116604;28;19964;-76
2022/04/23 04:53:52;;;;;;;;;;;308.00;2304.00;;;;;;5116560;28;19907;-75
2022/04/23 04:56:18;;;;;;;;;;;308.00;2304.00;;;;;;5116444;28;20401;-76
2022/04/23 04:58:44;;;;;;;;;;;308.00;2304.00;;;;;;5098203;28;19904;-71
2022/04/23 05:01:10;;;;;;;;;;;308.10;2304.00;;;;;;5097669;28;19903;-70
2022/04/23 05:03:36;;;;;;;;;;;308.10;2304.00;;;;;;5116323;28;19911;-71
2022/04/23 05:06:01;;;;;;;;;;;308.10;2304.00;;;;;;5116204;28;19915;-72
2022/04/23 05:08:27;;;;;;;;;;;308.10;2304.00;;;;;;5116253;28;19951;-70
2022/04/23 05:10:53;;;;;;;;;;;308.10;2304.00;;;;;;5116187;28;20366;-70
2022/04/23 05:13:18;;;;;;;;;;;308.10;2304.00;;;;;;5116126;28;19910;-71
2022/04/23 05:15:45;;;;;;;;;;;308.10;2304.00;;;;;;5097573;28;20279;-71
2022/04/23 05:18:10;;;;;;;;;;;308.10;2304.00;;;;;;5113138;28;19908;-71
2022/04/23 05:20:36;;;;;;;;;;;308.10;2304.00;;;;;;5115882;28;20436;-70
2022/04/23 05:23:02;;;;;;;;;;;308.10;2304.00;;;;;;5115946;28;19911;-71
2022/04/23 05:25:28;;;;;;;;;;;308.10;2304.00;;;;;;5115847;28;19903;-70
2022/04/23 05:27:53;;;;;;;;;;;332.80;2329.60;;;;;;5115848;28;19949;-72
2022/04/23 05:30:19;;;;;;;;;;;332.80;2329.60;;;;;;5116344;28;19904;-71
2022/04/23 05:32:45;;;;;;;;;;;332.80;2329.60;;;;;;5096741;28;19957;-72
2022/04/23 05:35:10;;;;;;;;;;;332.80;2329.60;;;;;;5115667;28;19918;-76
2022/04/23 05:37:36;;;;;;;;;;;332.90;2329.60;;;;;;5115647;28;19904;-71
2022/04/23 05:40:02;;;;;;;;;;;332.90;2329.60;;;;;;5115877;28;19907;-74
2022/04/23 05:42:28;;;;;;;;;;;332.90;2329.60;;;;;;5115580;28;20283;-73
2022/04/23 05:44:53;;;;;;;;;;;332.80;2329.60;;;;;;5115466;28;19904;-70
2022/04/23 05:47:19;;;;;;;;;;;332.80;2329.60;;;;;;5115535;28;20368;-79
2022/04/23 05:49:45;;;;;;;;;;;332.80;2329.60;;;;;;5115300;28;19903;-71
2022/04/23 05:52:10;;;;;;;;;;;332.80;2329.60;;;;;;5115376;28;19904;-71
2022/04/23 05:54:36;;;;;;;;;;;332.80;2329.60;;;;;;5115292;28;19907;-71
2022/04/23 05:57:02;;;;;;;;;;;332.80;2329.60;;;;;;5115874;28;19919;-71
2022/04/23 05:59:30;;;;;;;;;;;332.80;2329.60;;;;;;5115446;28;19942;-71
2022/04/23 06:01:56;;;;;;;;;;;332.90;2329.60;;;;;;5115196;28;19939;-69
2022/04/23 06:04:26;;;;;;;;;;;332.90;2329.60;;;;;;5114516;28;20483;-70
2022/04/23 06:06:52;;;;;;;;;;;332.90;2329.60;;;;;;5115159;28;19914;-70
2022/04/23 06:09:17;;;;;;;;;;;332.90;2329.60;;;;;;5115040;28;19903;-70
2022/04/23 06:11:43;;;;;;;;;;;333.00;2329.60;;;;;;5096747;28;19911;-71
2022/04/23 06:14:09;;;;;;;;;;;333.10;2329.60;;;;;;5115267;28;19994;-70
2022/04/23 06:16:36;;;;;;;;;;;333.30;2329.60;;;;;;5114834;28;19954;-70
2022/04/23 06:19:02;;;;;;;;;;;333.50;2329.60;;;;;;5114799;28;19998;-72
2022/04/23 06:21:27;;;;;;;;;;;333.40;2329.60;;;;;;5114810;28;20002;-71
2022/04/23 06:23:53;;;;;;;;;;;333.30;2329.60;;;;;;5114778;28;19904;-70
2022/04/23 06:26:19;;;;;;;;;;;333.30;2329.60;;;;;;5114727;28;19911;-77
2022/04/23 06:28:44;;;;;;;;;;;333.30;2329.60;;;;;;5115430;28;19994;-70
2022/04/23 06:31:10;;;;;;;;;;;333.30;2329.60;;;;;;5114591;28;20008;-77
2022/04/23 06:33:36;;;;;;;;;;;333.40;2329.60;;;;;;5113491;28;20036;-71
2022/04/23 06:36:02;;;;;;;;;;;333.50;2329.60;;;;;;5096208;28;19915;-76
2022/04/23 06:38:27;;;;;;;;;;;333.70;2329.60;;;;;;5096241;28;19956;-71
2022/04/23 06:40:53;;;;;;;;;;;333.70;2329.60;;;;;;5096236;28;20006;-70
2022/04/23 06:43:19;;;;;;;;;;;333.70;2329.60;;;;;;5114319;28;20287;-75
2022/04/23 06:45:44;;;;;;;;;;;333.70;2329.60;;;;;;5114970;28;19904;-70
2022/04/23 06:48:10;;;;;;;;;;;358.40;2329.60;;;;;;5114345;28;20384;-78
2022/04/23 06:50:36;;;;;;;;;;;358.40;2329.60;;;;;;5096126;28;19904;-70
2022/04/23 06:53:03;;;;;;;;;;;358.50;2329.60;;;;;;5114303;28;20382;-70
2022/04/23 06:55:29;;;;;;;;;;;358.50;2329.60;;;;;;5114202;28;20382;-80
2022/04/23 06:57:57;;;;;;;;;;;358.50;2329.60;;;;;;5114681;28;19904;-71
2022/04/23 07:00:23;;;;;;;;;;;358.40;2329.60;;;;;;5114265;28;19911;-72
2022/04/23 07:02:49;;;;;;;;;;;358.40;2329.60;;;;;;5113783;28;19907;-82
2022/04/23 07:05:15;;;;;;;;;;;358.40;2329.60;;;;;;5113841;28;19903;-79
2022/04/23 07:07:41;;;;;;;;;;;358.50;2329.60;;;;;;5098111;28;20512;-83
2022/04/23 07:10:07;;;;;;;;;;;358.60;2329.60;;;;;;5095816;28;19907;-78
2022/04/23 07:12:33;;;;;;;;;;;358.80;2329.60;;;;;;5113730;28;19950;-79
2022/04/23 07:14:59;;;;;;;;;;;358.90;2329.60;;;;;;5113744;28;19959;-83
2022/04/23 07:17:26;;;;;;;;;;;358.80;2329.60;;;;;;5113574;28;19903;-80
2022/04/23 07:19:54;;;;;;;;;;;358.60;2329.60;;;;;;5095418;28;20040;-77
2022/04/23 07:22:20;;;;;;;;;;;358.50;2329.60;;;;;;5113769;28;19903;-80
2022/04/23 07:24:49;;;;;;;;;;;358.40;2329.60;;;;;;5113645;28;20268;-71
2022/04/23 07:27:14;;;;;;;;;;;333.70;2329.60;;;;;;5113861;28;19956;-76
2022/04/23 07:29:40;;;;;;;;;;;333.60;2329.60;;;;;;5113583;28;19908;-79
2022/04/23 07:32:06;;;;;;;;;;;333.50;2329.60;;;;;;5113585;28;19911;-79
2022/04/23 07:37:49;;;;;;;;;;;333.30;2329.60;;;;;;5111257;28;19919;-81
2022/04/23 07:40:10;;;;;;;;;;;333.30;2329.60;;;;;;5109447;28;19904;-75
2022/04/23 07:42:36;;;;;;;;;;;333.10;2329.60;;;;;;5111128;28;20447;-71
2022/04/23 07:45:03;;;;;;;;;;;333.20;2329.60;;;;;;5117151;28;19971;-70
2022/04/23 07:47:28;;;;;;;;;;;333.10;2329.60;;;;;;5119154;28;19950;-71
2022/04/23 07:49:54;;;;;;;;;;;333.50;2329.60;;;;;;5117412;28;19904;-69
2022/04/23 07:52:19;;;;;;;;;;;333.70;2329.60;;;;;;5117796;28;19907;-70
2022/04/23 07:54:45;;;;;;;;;;;358.60;2329.60;;;;;;5117755;28;19908;-70
2022/04/23 07:57:11;;;;;;;;;;;358.70;2329.60;;;;;;5120401;28;20057;-70
2022/04/23 07:59:43;;;;;;;;;;;359.10;2329.60;;;;;;5118094;28;19903;-70
2022/04/23 08:02:09;;;;;;;;;;;384.90;2329.60;;;;;;5117236;28;19904;-69
2022/04/23 08:04:35;;;;;;;;;;;410.10;2355.20;;;;;;5099284;28;20348;-73
2022/04/23 08:07:01;;;;;;;;;;;410.00;2355.20;;;;;;5117119;28;19904;-81
2022/04/23 08:09:27;;;;;;;;;;;409.80;2355.20;;;;;;5116854;28;19914;-77
2022/04/23 08:11:53;;;;;;;;;;;384.90;2329.60;;;;;;5116974;28;19964;-77
2022/04/23 08:14:18;;;;;;;;;;;409.60;2355.20;;;;;;5116999;28;20360;-76
2022/04/23 08:16:45;;;;;;;;;;;384.90;2329.60;;;;;;5098921;28;20368;-74
2022/04/23 08:19:11;;;;;;;;;;;384.50;2329.60;;;;;;5117196;28;19904;-76
2022/04/23 08:21:37;;;;;;;;;;;384.40;2329.60;;;;;;5117083;28;19903;-76
2022/04/23 08:24:02;;;;;;;;;;;384.90;2329.60;;;;;;5116306;28;20012;-73
2022/04/23 08:26:28;;;;;;;;;;;384.90;2329.60;;;;;;5098145;28;19908;-75
2022/04/23 08:31:38;;;;;;;;;;;384.70;2329.60;;;;;;5115649;28;20379;-73
2022/04/23 08:34:03;;;;;;;;;;;384.70;2329.60;;;;;;5116123;28;19916;-73
2022/04/23 08:36:31;;;;;;;;;;;384.80;2329.60;;;;;;5116217;28;19915;-73
2022/04/23 08:38:58;;;;;;;;;;;409.80;2355.20;;;;;;5116317;28;20287;-74
2022/04/23 08:41:28;;;;;;;;;;;409.60;2355.20;;;;;;5116505;28;20341;-74
2022/04/23 08:43:58;;;;;;;;;;;384.80;2329.60;;;;;;5116274;28;19955;-77
2022/04/23 08:46:25;;;;;;;;;;;384.40;2329.60;;;;;;5116319;28;19903;-74
2022/04/23 08:48:55;;;;;;;;;;;384.40;2329.60;;;;;;5116290;28;19913;-74
2022/04/23 08:51:22;;;;;;;;;;;384.80;2329.60;;;;;;5113618;28;19908;-74
2022/04/23 08:53:52;;;;;;;;;;;409.70;2355.20;;;;;;5116193;28;19904;-74
2022/04/23 08:56:18;;;;;;;;;;;409.60;2355.20;;;;;;5115472;28;19964;-75
2022/04/23 08:58:44;;;;;;;;;;;384.90;2329.60;;;;;;5116153;28;19904;-74
2022/04/23 09:01:10;;;;;;;;;;;409.80;2355.20;;;;;;5097695;28;19942;-75
2022/04/23 09:03:35;;;;;;;;;;;435.50;2355.20;;;;;;5116087;28;19942;-75
2022/04/23 09:06:01;;;;;;;;;;;435.70;2355.20;;;;;;5116187;28;19908;-79
2022/04/23 09:08:29;;;;;;;39.03;29.20;;;461.00;2380.80;;;;;;5098201;28;19908;-78
2022/04/23 09:10:55;;;;;;;24.65;22.10;;;461.10;2380.80;;;;;;5097400;28;20361;-74
2022/04/23 09:13:29;;;;;;;55.35;44.33;;;461.20;2380.80;;;;;;5115823;28;20083;-79
2022/04/23 09:24:10;;;;;;;190.38;136.32;;;435.70;2355.20;;;;;;5077301;28;20031;-72
2022/04/23 09:26:39;;;;;;;30.27;27.02;;;435.50;2355.20;;;;;;5115570;28;20467;-73
2022/04/23 09:29:23;;;;;;;32.53;28.35;;;410.40;2355.20;;;;;;5115269;28;20056;-71
2022/04/23 09:32:07;;;;;;;;;;;410.40;2355.20;;;;;;5116004;28;20408;-74
2022/04/23 09:34:33;;;;;;;;;;;435.20;2355.20;;;;;;5115470;28;19969;-73
2022/04/23 09:37:00;;;;;;;60.35;48.70;;;435.20;2355.20;;;;;;5115204;28;19904;-73
2022/04/23 09:39:38;;;;;;;37.50;31.40;;;436.00;2355.20;;;;;;5114745;28;20019;-74
2022/04/23 09:42:30;;;;;;;32.42;27.20;;;461.60;2380.80;;;;;;5112545;28;20031;-73
2022/04/23 09:44:56;;;;;;;22.00;19.67;;;460.90;2380.80;;;;;;5106990;28;20426;-74
2022/04/23 09:47:31;;;;;;;29.15;23.35;;;436.00;2355.20;;;;;;5096327;28;20019;-72
2022/04/23 09:49:58;;;;;;;36.05;32.15;;;460.80;2380.80;;;;;;5096104;28;20020;-73
2022/04/23 09:52:30;;;;;;;24.50;22.10;;;460.90;2380.80;;;;;;5114519;28;20020;-72
2022/04/23 09:54:59;;;;;;;26.52;23.65;;;460.90;2380.80;;;;;;5096038;28;20019;-73
2022/04/23 09:57:25;;;;;;;22.10;19.80;;;436.00;2355.20;;;;;;5114414;28;20074;-72
2022/04/23 09:59:52;;;;;;;25.13;21.05;;;461.20;2380.80;;;;;;5114400;28;20016;-74
2022/04/23 10:02:21;;;;;;;22.38;19.20;;;486.50;2380.80;;;;;;5114035;28;20504;-74
2022/04/23 10:04:48;;;;;;;22.90;20.38;;;461.70;2380.80;;;;;;5114262;28;20375;-74
2022/04/23 10:07:17;;;;;;;24.25;20.58;;;461.40;2380.80;;;;;;5114610;28;20023;-76
2022/04/23 10:09:48;;;;;;;23.60;20.98;;;460.90;2380.80;;;;;;5115500;28;20352;-75
2022/04/23 10:12:19;;;;;;;23.15;19.63;;;460.90;2380.80;;;;;;5096107;28;20484;-76
2022/04/23 10:14:54;;;;;;;19.83;17.00;;;461.50;2380.80;;;;;;5114056;28;20026;-77
2022/04/23 10:17:21;;;;;;;19.30;17.30;;;;;;;;;;5114344;28;20028;-71
2022/04/23 10:19:49;;;;;;;18.90;16.73;;;487.00;2380.80;;;;;;5114608;28;20020;-71
2022/04/23 10:22:28;;;;;;;20.85;18.70;;;486.40;2380.80;;;;;;5114480;28;20024;-70
2022/04/23 10:25:24;;;;;;;15.50;13.90;;;487.00;2380.80;;;;;;5114433;28;20537;-70
2022/04/23 10:27:51;;;;;;;14.93;12.45;;;486.60;2380.80;;;;;;5114401;28;20409;-73
2022/04/23 10:30:17;;;;;;;15.98;14.15;;;461.50;2380.80;;;;;;5114094;28;20480;-71
2022/04/23 10:32:43;;;;;;;14.57;12.55;;;461.40;2380.80;;;;;;5114028;28;20038;-76
2022/04/23 10:35:32;;;;;;;17.33;14.63;;;461.30;2380.80;;;;;;5113962;28;20055;-72
2022/04/23 10:38:19;;;;;;;14.68;13.00;;;486.70;2380.80;;;;;;5096111;28;20039;-74
2022/04/23 10:40:45;;;;;;;15.77;13.15;;;487.20;2380.80;;;;;;5114088;28;20027;-74
2022/04/23 10:43:15;;;;;;;14.90;13.38;;;486.70;2380.80;;;;;;5095370;28;20020;-76
2022/04/23 10:45:40;;;;;;;18.48;14.35;;;486.50;2380.80;;;;;;5095692;28;20140;-70
2022/04/23 10:48:30;;;;;;;15.85;13.55;;;486.60;2380.80;;;;;;5114068;28;20024;-70
2022/04/23 10:51:20;;;;;;;15.48;13.88;;;461.70;2380.80;;;;;;5112180;28;20905;-71
2022/04/23 10:53:47;;;;;;;15.85;13.85;;;461.70;2380.80;;;;;;5112129;28;20363;-77
2022/04/23 10:56:18;;;;;;;17.87;14.47;;;486.40;2380.80;;;;;;5112118;28;20582;-71
2022/04/23 10:58:44;;;;;;;15.50;13.98;;;486.50;2380.80;;;;;;5112189;28;20461;-72
2022/04/23 11:01:26;;;;;;;18.45;16.63;;;486.60;2380.80;;;;;;5112214;28;20371;-71
2022/04/23 11:04:08;;;;;;;18.38;16.40;;;512.00;2380.80;;;;;;5090334;28;20382;-75
2022/04/23 11:12:36;;;;;;;17.65;14.63;;;512.50;2304.00;;;;;;5111716;28;20470;-77
2022/04/23 11:15:16;;;;;;;14.43;12.95;;;512.30;2304.00;;;;;;5112054;28;20409;-78
2022/04/23 11:17:47;;;;;;;15.32;13.75;;;512.10;2227.20;;;;;;5111174;28;20371;-77
2022/04/23 11:20:14;;;;;;;17.20;13.75;;;487.10;2278.40;;;;;;5115409;28;20704;-70
2022/04/23 11:22:43;;;;;;;13.90;12.47;;;512.50;2227.20;;;;;;5116407;27;20374;-78
2022/04/23 11:25:10;;;;;;;13.40;12.00;;;512.90;2150.40;;;;;;5098239;28;20382;-76
2022/04/23 11:27:38;;;;;;;12.98;11.75;;;537.80;2099.20;;;;;;5116087;28;20370;-78
2022/04/23 11:30:05;;;;;;;14.65;11.90;;;537.80;2124.80;;;;;;5097869;28;20375;-77
2022/04/23 11:32:33;;;;;;;14.77;13.07;;;537.90;2073.60;;;;;;5116187;28;20374;-78
2022/04/23 11:35:01;;;;;;;14.05;12.55;;;538.10;2124.80;;;;;;5097367;28;20743;-75
2022/04/23 11:37:31;;;;;;;17.52;11.85;;;537.80;2022.40;;;;;;5116224;28;20378;-71
2022/04/23 11:40:05;;;;;;;12.07;10.77;;;537.80;2022.40;;;;;;5097214;28;20375;-76
2022/04/23 11:42:41;;;;;;;14.23;11.82;;;538.50;1971.20;;;;;;5116018;28;20363;-76
2022/04/23 11:45:08;;;;;;;13.80;12.07;;;563.20;2048.00;;;;;;5115131;28;20447;-74
2022/04/23 11:47:35;;;;;;;11.88;10.70;;;563.40;1996.80;;;;;;5097861;28;20420;-76
2022/04/23 11:50:21;;;;;;;12.45;11.25;;;538.30;1996.80;;;;;;5116203;28;20743;-76
2022/04/23 11:53:01;;;;;;;15.50;14.10;;;537.90;2022.40;;;;;;5116281;28;20359;-76
2022/04/23 11:55:28;;;;;;;14.45;13.05;;;563.70;1996.80;;;;;;5097805;28;20395;-76
2022/04/23 11:58:04;;;;;;;13.10;11.80;;;563.80;2048.00;;;;;;5097909;28;20366;-75
2022/04/23 12:00:34;;;;;;;11.68;10.57;;;563.40;1971.20;;;;;;5097704;28;20386;-76
2022/04/23 12:03:01;;;;;;;11.40;10.23;;;538.30;1920.00;;;;;;5097566;28;20383;-76
2022/04/23 12:05:32;;;;;;;12.37;11.17;;;538.10;1920.00;;;;;;5116233;28;20798;-75
2022/04/23 12:07:59;;;;;;;12.13;10.82;;;537.90;1945.60;;;;;;5116042;28;20777;-75
2022/04/23 12:10:27;;;;;;;14.13;10.98;;;537.60;1945.60;;;;;;5115787;28;20378;-75
2022/04/23 12:12:55;;;;;;;12.07;10.85;;;538.00;1971.20;;;;;;5115812;28;20410;-76
2022/04/23 12:15:21;;;;;;;17.05;15.43;;;538.30;1945.60;;;;;;5115581;28;20859;-72
2022/04/23 12:17:52;;;;;;;17.95;16.30;;;563.20;1971.20;;;;;;5115661;28;20885;-76
2022/04/23 12:20:19;;;;;;;18.20;16.50;;;538.40;1971.20;;;;;;5115562;28;20366;-75
2022/04/23 12:23:02;;;;;;;17.67;15.98;;;538.50;1996.80;;;;;;5115575;28;20449;-75
2022/04/23 12:25:36;;;;;;;19.83;17.92;;;538.10;2022.40;;;;;;5115390;28;20393;-76
2022/04/23 12:28:03;;;;;;;16.67;15.07;;;537.90;2048.00;;;;;;5097275;28;20735;-75
2022/04/23 12:41:53;;;;;;;20.83;18.83;;;538.40;1945.60;;;;;;5115630;28;20366;-78
2022/04/23 12:44:20;;;;;;;18.60;16.90;;;563.40;2048.00;;;;;;5115793;28;20911;-74
2022/04/23 12:47:01;;;;;;;17.15;15.55;;;563.80;1920.00;;;;;;5115022;28;20403;-73
2022/04/23 12:49:50;;;;;;;18.40;16.70;;;538.40;1945.60;;;;;;5096830;28;20371;-77
2022/04/23 12:52:46;;;;;;;17.97;16.37;;;564.00;1996.80;;;;;;5115515;28;20483;-76
2022/04/23 12:55:13;;;;;;;18.70;16.98;;;;;;;;;;5107029;28;20754;-76
2022/04/23 12:57:46;;;;;;;17.67;16.00;;;589.50;1843.20;;;;;;5096630;28;20363;-73
2022/04/23 13:00:36;;;;;;;17.00;15.40;;;563.90;1868.80;;;;;;5114794;28;20363;-73
2022/04/23 13:03:37;;;;;;;17.50;15.60;;;563.30;1971.20;;;;;;5115138;28;20399;-75
2022/04/23 13:06:04;;;;;;;17.63;15.93;;;563.40;1945.60;;;;;;5113990;28;20734;-73
2022/04/23 13:11:24;;;;;;;17.35;15.32;;;563.20;2048.00;;;;;;5115241;28;20365;-76
2022/04/23 13:13:54;;;;;;;15.93;14.35;;;563.20;1996.80;;;;;;5114518;28;20363;-73
2022/04/23 13:16:32;;;;;;;14.13;12.77;;;563.30;1920.00;;;;;;5114468;28;20489;-75
2022/04/23 13:19:00;;;;;;;14.25;12.80;;;563.40;1894.40;;;;;;5096308;28;20858;-76
2022/04/23 13:21:31;;;;;;;18.60;14.65;;;563.20;1920.00;;;;;;5114443;28;20826;-75
2022/04/23 13:23:57;;;;;;;16.00;14.43;;;538.30;1920.00;;;;;;5114380;28;20854;-72
2022/04/23 13:26:27;;;;;;;15.23;13.82;;;563.20;1945.60;;;;;;5114415;28;20374;-76
2022/04/23 13:28:53;;;;;;;15.32;13.85;;;563.50;1894.40;;;;;;5096036;28;20359;-75
2022/04/23 13:31:20;;;;;;;14.70;13.30;;;564.00;1817.60;;;;;;5095683;28;20398;-75
2022/04/23 13:33:47;;;;;;;14.40;12.90;;;589.00;1817.60;;;;;;5095767;28;20410;-75
2022/04/23 13:36:13;;;;;;;13.32;11.93;;;589.40;1868.80;;;;;;5114139;28;20406;-72
2022/04/23 13:38:39;;;;;;;14.43;13.00;;;589.50;1664.00;;;;;;5095910;28;20371;-76
2022/04/23 13:41:08;;;;;;;15.98;14.38;;;589.00;1766.40;;;;;;5095762;28;20870;-75
2022/04/23 13:43:35;;;;;;;15.57;13.98;;;564.10;1817.60;;;;;;5095418;28;20370;-76
2022/04/23 13:46:01;;;;;;;16.50;14.90;;;563.70;1894.40;;;;;;5095647;28;20410;-75